Data for 06/27/2007

Time Sea-Level Adjusted Pressure Absolute Pressure Temperature Relative Humidity Dew Point   
(mb) (inHg) (mb) (inHg) (C) (F) (%) (C) (F)
00:05 1024 30.24 854 25.22 15 59 32 -1.4 29.6
00:10 1024 30.24 853 25.19 14.9 58.8 33 -1.4 29.5
00:15 1024 30.24 853 25.19 14.8 58.7 32 -1.5 29.3
00:20 1024 30.24 853 25.19 14.8 58.7 32 -1.5 29.4
00:25 1024 30.24 853 25.19 14.7 58.4 33 -1.5 29.2
00:30 1024 30.24 853 25.19 14.7 58.4 32 -1.6 29.1
00:35 1024 30.24 853 25.19 14.6 58.3 33 -1.6 29.1
00:40 1024 30.24 853 25.19 14.6 58.2 33 -1.6 29.1
00:45 1024 30.24 853 25.19 14.5 58 33 -1.6 29.1
00:50 1024 30.24 853 25.19 14.4 57.9 33 -1.7 28.9
00:55 1024 30.24 853 25.19 14.4 58 32 -1.9 28.7
01:00 1024 30.24 853 25.19 14.5 58.1 32 -1.7 28.9
01:05 1024 30.24 853 25.19 14.3 57.7 33 -1.6 29.1
01:10 1024 30.24 853 25.19 14.1 57.4 34 -1.6 29.1
01:15 1024 30.24 853 25.19 14.1 57.3 34 -1.6 29
01:20 1024 30.24 853 25.19 14 57.2 34 -1.7 29
01:25 1024 30.24 853 25.19 13.9 57.1 34 -1.7 29
01:30 1024 30.24 853 25.19 13.9 56.9 34 -1.6 29.1
01:35 1024 30.24 853 25.19 13.8 56.8 35 -1.5 29.3
01:40 1024 30.24 853 25.19 13.7 56.6 35 -1.6 29.1
01:45 1024 30.24 853 25.19 13.6 56.5 35 -1.6 29.2
01:50 1024 30.24 853 25.19 13.5 56.4 35 -1.7 29
01:55 1024 30.24 853 25.19 13.6 56.4 35 -1.6 29.2
02:00 1024 30.24 853 25.19 13.5 56.3 35 -1.6 29.1
02:05 1024 30.24 853 25.19 13.5 56.3 35 -1.5 29.2
02:10 1024 30.24 853 25.19 13.4 56.1 35 -1.6 29.1
02:15 1024 30.24 853 25.19 13.4 56.2 35 -1.5 29.2
02:20 1024 30.24 853 25.19 13.3 56 35 -1.6 29.2
02:25 1024 30.24 853 25.19 13.3 55.9 36 -1.5 29.2
02:30 1024 30.24 853 25.19 13.2 55.7 36 -1.6 29.1
02:35 1024 30.24 853 25.19 13.2 55.7 37 -1.3 29.6
02:40 1024 30.24 853 25.19 13 55.3 37 -1.3 29.7
02:45 1024 30.24 853 25.19 12.9 55.3 37 -1.4 29.5
02:50 1024 30.24 853 25.19 12.9 55.2 37 -1.3 29.7
02:55 1024 30.24 853 25.19 12.9 55.2 37 -1.3 29.6
03:00 1024 30.24 853 25.19 12.8 55.1 37 -1.4 29.5
03:05 1024 30.24 853 25.19 12.9 55.2 37 -1.3 29.7
03:10 1024 30.24 853 25.19 12.8 55 37 -1.4 29.6
03:15 1024 30.24 853 25.19 12.8 55 38 -1.3 29.7
03:20 1024 30.24 853 25.19 12.8 55 37 -1.6 29.2
03:25 1024 30.24 853 25.19 12.8 55 36 -1.7 28.9
03:30 1024 30.24 853 25.19 12.9 55.2 36 -1.8 28.7
03:35 1024 30.24 853 25.19 12.9 55.2 36 -1.9 28.7
03:40 1024 30.24 853 25.19 12.9 55.1 36 -1.6 29.1
03:45 1024 30.24 853 25.19 12.7 54.9 37 -1.7 28.9
03:50 1024 30.24 853 25.19 12.7 54.9 36 -1.7 28.9
03:55 1024 30.24 853 25.19 12.6 54.7 37 -1.6 29.2
04:00 1024 30.24 853 25.19 12.5 54.5 37 -1.7 29
04:05 1024 30.24 853 25.19 12.4 54.4 38 -1.6 29.2
04:10 1024 30.24 853 25.19 12.3 54.2 38 -1.5 29.2
04:15 1024 30.24 853 25.19 12.3 54.1 38 -1.5 29.4
04:20 1024 30.24 853 25.19 12.1 53.8 38 -1.5 29.2
04:25 1024 30.24 853 25.19 12.1 53.7 38 -1.7 29
04:30 1023 30.21 853 25.19 12.2 53.9 38 -1.7 29
04:35 1023 30.21 853 25.19 12 53.7 38 -1.8 28.8
04:40 1024 30.24 853 25.19 12.1 53.8 38 -1.7 28.9
04:45 1023 30.21 853 25.19 12.1 53.7 38 -1.7 29
04:50 1023 30.21 853 25.19 11.9 53.4 39 -1.6 29.2
04:55 1024 30.24 853 25.19 11.9 53.4 39 -1.7 29
05:00 1024 30.24 853 25.19 11.9 53.4 38 -1.8 28.8
05:05 1024 30.24 853 25.19 11.9 53.5 39 -1.7 28.9
05:10 1024 30.24 853 25.19 11.8 53.2 39 -1.8 28.8
05:15 1024 30.24 853 25.19 11.8 53.2 39 -1.8 28.7
05:20 1024 30.24 853 25.19 11.8 53.3 38 -1.8 28.7
05:25 1024 30.24 853 25.19 11.8 53.2 39 -1.6 29
05:30 1024 30.24 853 25.19 11.7 53.1 39 -1.7 28.9
05:35 1024 30.24 853 25.19 11.8 53.2 39 -1.9 28.7
05:40 1024 30.24 853 25.19 11.8 53.2 38 -1.9 28.6
05:45 1024 30.24 853 25.19 11.8 53.2 38 -1.9 28.5
05:50 1024 30.24 853 25.19 11.7 53.1 39 -1.8 28.8
05:55 1024 30.24 853 25.19 11.6 53 39 -1.8 28.8
06:00 1024 30.24 853 25.19 11.6 53 39 -1.8 28.7
06:05 1024 30.24 853 25.19 11.7 53 39 -1.9 28.6
06:10 1024 30.24 853 25.19 11.7 53.1 39 -1.7 28.9
06:15 1024 30.24 853 25.19 11.6 53 39 -1.6 29.1
06:20 1024 30.24 853 25.19 11.6 52.8 40 -1.6 29.2
06:25 1024 30.24 853 25.19 11.7 53 39 -1.8 28.8
06:30 1024 30.24 853 25.19 11.8 53.3 39 -1.8 28.8
06:35 1024 30.24 853 25.19 12 53.6 38 -1.9 28.6
06:40 1024 30.24 853 25.19 12.1 53.7 38 -1.8 28.8
06:45 1024 30.24 853 25.19 12.1 53.9 39 -1.4 29.4
06:50 1024 30.24 853 25.19 12.2 54 38 -1.6 29.1
06:55 1024 30.24 853 25.19 12.4 54.3 38 -1.5 29.2
07:00 1024 30.24 853 25.19 12.4 54.4 37 -1.6 29.1
07:05 1024 30.24 853 25.19 12.5 54.5 38 -1.4 29.5
07:10 1024 30.24 853 25.19 12.7 54.9 37 -1.4 29.4
07:15 1024 30.24 854 25.22 12.8 55.1 38 -1.1 30
07:20 1024 30.24 854 25.22 12.9 55.3 38 -1.1 30
07:25 1024 30.24 854 25.22 12.9 55.3 38 -1.1 30.1
07:30 1025 30.27 854 25.22 13 55.4 37 -1.1 30
07:35 1025 30.27 854 25.22 13 55.5 38 -1.1 30.1
07:40 1024 30.24 854 25.22 13.2 55.7 38 -0.9 30.4
07:45 1024 30.24 854 25.22 13.2 55.8 37 -1 30.3
07:50 1024 30.24 854 25.22 13.4 56 38 -0.6 31
07:55 1024 30.24 854 25.22 13.4 56.2 38 -0.4 31.2
08:00 1024 30.24 854 25.22 13.5 56.3 38 -0.4 31.2
08:05 1025 30.27 854 25.22 13.8 56.8 37 -0.5 31.1
08:10 1025 30.27 854 25.22 14.1 57.3 37 -0.5 31.1
08:15 1025 30.27 854 25.22 14.2 57.5 37 -0.2 31.6
08:20 1025 30.27 854 25.22 14.3 57.7 36 -0.5 31.2
08:25 1025 30.27 854 25.22 14.4 57.9 36 -0.2 31.6
08:30 1025 30.27 854 25.22 14.6 58.3 36 -0.2 31.7
08:35 1025 30.27 854 25.22 14.9 58.9 35 -0.3 31.4
08:40 1025 30.27 854 25.22 14.9 58.8 36 -0 32
08:45 1025 30.27 854 25.22 15.1 59.1 35 -0.2 31.6
08:50 1024 30.24 854 25.22 15.1 59.1 36 0.1 32.1
08:55 1024 30.24 854 25.22 15 59 34 -0.6 30.9
09:00 1024 30.24 854 25.22 15.2 59.3 33 -1 30.1
09:05 1024 30.24 854 25.22 15.5 59.8 33 -0.7 30.7
09:10 1024 30.24 853 25.19 15.5 59.8 33 -0.7 30.7
09:15 1024 30.24 853 25.19 15.6 60.1 34 -0.3 31.5
09:20 1024 30.24 853 25.19 15.8 60.5 33 -0.5 31.1
09:25 1024 30.24 853 25.19 16 60.8 33 -0.3 31.5
09:30 1024 30.24 853 25.19 16.2 61.1 33 -0.1 31.9
09:35 1024 30.24 853 25.19 16.3 61.4 33 0.2 32.4
09:40 1024 30.24 853 25.19 16.5 61.6 33 0.2 32.4
09:45 1024 30.24 853 25.19 16.8 62.2 33 0.6 33
09:50 1024 30.24 853 25.19 17 62.5 34 1 33.7
09:55 1024 30.24 853 25.19 17 62.6 34 1.2 34.1
10:00 1024 30.24 853 25.19 17.3 63.1 35 1.7 35.1
10:05 1024 30.24 853 25.19 17.1 62.7 34 1.1 34.1
10:10 1024 30.24 853 25.19 17.5 63.4 35 1.8 35.2
10:15 1024 30.24 853 25.19 17.2 62.9 34 1.5 34.7
10:20 1024 30.24 853 25.19 17.9 64.1 34 1.9 35.4
10:25 1024 30.24 853 25.19 18.5 65.3 33 1.9 35.5
10:30 1024 30.24 853 25.19 18.3 64.9 33 2 35.6
10:35 1024 30.24 853 25.19 18.7 65.6 34 2.6 36.6
10:40 1024 30.24 853 25.19 18.9 66 33 2.3 36.2
10:45 1024 30.24 853 25.19 19.1 66.3 33 2.7 36.9
10:50 1024 30.24 853 25.19 19.2 66.6 33 2.9 37.2
10:55 1024 30.24 853 25.19 18.9 66.1 35 3.2 37.7
11:00 1024 30.24 853 25.19 18.6 65.6 35 3 37.3
11:05 1024 30.24 853 25.19 18.2 64.7 35 2.5 36.4
11:10 1024 30.24 853 25.19 18.1 64.5 35 2.4 36.4
11:15 1024 30.24 853 25.19 18.1 64.6 34 2.3 36.2
11:20 1024 30.24 853 25.19 18.1 64.6 34 2.2 35.9
11:25 1024 30.24 853 25.19 18.5 65.3 33 1.9 35.4
11:30 1024 30.24 853 25.19 18.8 65.9 34 2.8 37
11:35 1024 30.24 853 25.19 19.3 66.8 33 2.9 37.2
11:40 1024 30.24 853 25.19 20 68 33 3.4 38.1
11:45 1024 30.24 853 25.19 20 67.9 33 3.3 37.9
11:50 1024 30.24 853 25.19 20.4 68.8 30 2.6 36.7
11:55 1023 30.21 853 25.19 20.6 69.2 32 3.4 38.1
12:00 1023 30.21 853 25.19 20.8 69.5 32 3.5 38.4
12:05 1023 30.21 853 25.19 20.8 69.4 32 3.4 38.2
12:10 1023 30.21 852 25.16 20.8 69.4 31 3.4 38.1
12:15 1023 30.21 852 25.16 20.8 69.4 32 3.5 38.2
12:20 1023 30.21 852 25.16 20.5 68.9 32 3.5 38.3
12:25 1023 30.21 852 25.16 21.1 70 32 3.8 38.9
12:30 1023 30.21 852 25.16 21.5 70.6 32 4.2 39.6
12:35 1023 30.21 852 25.16 21.5 70.7 31 4.1 39.3
12:40 1023 30.21 852 25.16 21.4 70.5 32 4.2 39.5
12:45 1023 30.21 852 25.16 21.4 70.6 31 3.6 38.5
12:50 1023 30.21 852 25.16 21.8 71.3 31 4 39.2
12:55 1023 30.21 852 25.16 22.1 71.8 31 4.3 39.8
13:00 1023 30.21 852 25.16 22 71.6 31 4.1 39.3
13:05 1023 30.21 852 25.16 22.3 72.1 31 4.4 39.9
13:10 1023 30.21 852 25.16 22 71.5 31 4.5 40
13:15 1023 30.21 852 25.16 22.1 71.8 31 4.5 40.2
13:20 1023 30.21 852 25.16 22.4 72.3 31 4.6 40.2
13:25 1023 30.21 852 25.16 22 71.5 32 4.7 40.5
13:30 1022 30.18 852 25.16 22.3 72.1 32 5.1 41.1
13:35 1022 30.18 852 25.16 22.6 72.7 31 4.8 40.7
13:40 1022 30.18 851 25.13 22.9 73.2 30 4.6 40.3
13:45 1022 30.18 851 25.13 22.8 73.1 30 4.8 40.6
13:50 1022 30.18 851 25.13 22.6 72.8 32 5.1 41.2
13:55 1022 30.18 851 25.13 23.1 73.5 30 4.8 40.7
14:00 1022 30.18 851 25.13 22.9 73.1 30 4.6 40.2
14:05 1022 30.18 851 25.13 23.2 73.7 30 5.1 41.1
14:10 1022 30.18 851 25.13 23.2 73.8 30 4.9 40.9
14:15 1022 30.18 851 25.13 23.1 73.6 30 4.7 40.5
14:20 1022 30.18 851 25.13 23 73.3 30 4.6 40.2
14:25 1022 30.18 851 25.13 23.4 74.1 30 5.1 41.3
14:30 1022 30.18 851 25.13 23.3 73.9 30 4.8 40.6
14:35 1021 30.15 851 25.13 23.3 74 29 4.6 40.2
14:40 1021 30.15 851 25.13 23.5 74.4 30 5.1 41.3
14:45 1021 30.15 850 25.1 23.3 73.9 29 4.4 39.9
14:50 1021 30.15 850 25.1 23.2 73.7 30 4.9 40.8
14:55 1021 30.15 850 25.1 23.2 73.7 30 4.7 40.5
15:00 1021 30.15 850 25.1 23.3 73.9 30 4.7 40.5
15:05 1021 30.15 850 25.1 23.5 74.3 30 5.1 41.2
15:10 1021 30.15 850 25.1 23.5 74.3 29 4.7 40.4
15:15 1021 30.15 850 25.1 23.3 73.9 30 4.9 40.8
15:20 1021 30.15 850 25.1 23.4 74.2 29 4.5 40.2
15:25 1021 30.15 850 25.1 23.6 74.4 29 4.7 40.5
15:30 1021 30.15 850 25.1 23.6 74.5 28 4.4 40
15:35 1021 30.15 850 25.1 23.5 74.3 28 4.1 39.4
15:40 1021 30.15 850 25.1 23.6 74.5 28 4.2 39.6
15:45 1021 30.15 850 25.1 23.6 74.5 28 4 39.2
15:50 1021 30.15 850 25.1 23.8 74.8 27 4 39.3
15:55 1021 30.15 850 25.1 23.7 74.6 28 4.2 39.6
16:00 1021 30.15 850 25.1 23.8 74.8 29 4.8 40.6
16:05 1021 30.15 850 25.1 23.7 74.6 30 5.5 41.8
16:10 1021 30.15 850 25.1 23.8 74.9 30 5.5 42
16:15 1021 30.15 850 25.1 23.7 74.7 30 5.5 41.9
16:20 1021 30.15 850 25.1 23.6 74.4 31 5.8 42.4
16:25 1021 30.15 850 25.1 23.8 74.8 31 6 42.8
16:30 1020 30.12 850 25.1 23.9 75 30 5.6 42.1
16:35 1021 30.15 850 25.1 23.6 74.5 31 5.7 42.3
16:40 1021 30.15 850 25.1 23.6 74.4 31 5.6 42.1
16:45 1020 30.12 850 25.1 23.7 74.7 32 6.3 43.4
16:50 1020 30.12 850 25.1 24.2 75.6 31 6.5 43.6
16:55 1020 30.12 850 25.1 24.2 75.5 32 6.5 43.7
17:00 1020 30.12 850 25.1 24.1 75.4 30 5.8 42.5
17:05 1020 30.12 850 25.1 24.2 75.6 31 6.4 43.4
17:10 1021 30.15 850 25.1 24 75.1 31 6.2 43.1
17:15 1021 30.15 850 25.1 23.7 74.7 31 5.9 42.6
17:20 1021 30.15 850 25.1 23.7 74.7 31 5.8 42.4
17:25 1021 30.15 850 25.1 23.8 74.9 31 5.9 42.6
17:30 1021 30.15 850 25.1 23.8 74.9 31 5.9 42.5
17:35 1021 30.15 850 25.1 23.9 74.9 31 5.8 42.5
17:40 1021 30.15 850 25.1 24.1 75.3 31 6.3 43.4
17:45 1021 30.15 850 25.1 24 75.2 31 6.2 43.2
17:50 1020 30.12 850 25.1 23.5 74.2 31 5.7 42.2
17:55 1020 30.12 850 25.1 23.5 74.4 33 6.5 43.8
18:00 1020 30.12 849 25.07 23.6 74.6 32 6.1 42.9
18:05 1020 30.12 849 25.07 23.2 73.8 32 6.1 42.9
18:10 1020 30.12 849 25.07 23.3 74 31 5.4 41.7
18:15 1019 30.09 849 25.07 23.5 74.4 30 5.2 41.4
18:20 1020 30.12 849 25.07 23.8 74.8 31 5.8 42.5
18:25 1020 30.12 849 25.07 23.3 74 32 6.1 43
18:30 1020 30.12 849 25.07 22.9 73.3 32 5.6 42
18:35 1020 30.12 849 25.07 23.1 73.7 31 5.4 41.8
18:40 1019 30.09 849 25.07 23.2 73.7 32 5.6 42.1
18:45 1019 30.09 849 25.07 23 73.3 33 5.8 42.5
18:50 1020 30.12 849 25.07 23 73.3 32 5.7 42.3
18:55 1020 30.12 849 25.07 22.7 72.9 33 5.6 42.1
19:00 1020 30.12 849 25.07 22.6 72.7 33 5.7 42.3
19:05 1020 30.12 849 25.07 22.5 72.5 33 5.6 42
19:10 1020 30.12 849 25.07 22.4 72.4 34 5.9 42.5
19:15 1020 30.12 849 25.07 22.4 72.3 33 5.6 42.1
19:20 1020 30.12 849 25.07 22.4 72.3 34 5.8 42.4
19:25 1020 30.12 849 25.07 22.3 72.2 33 5.6 42.1
19:30 1020 30.12 849 25.07 22.2 72 34 5.7 42.3
19:35 1020 30.12 849 25.07 22.1 71.8 34 5.6 42.1
19:40 1020 30.12 849 25.07 22.1 71.7 34 5.6 42.1
19:45 1020 30.12 849 25.07 22 71.6 34 5.6 42.1
19:50 1020 30.12 849 25.07 21.9 71.4 34 5.7 42.2
19:55 1020 30.12 849 25.07 21.8 71.3 35 5.8 42.4
20:00 1020 30.12 849 25.07 21.8 71.2 35 5.8 42.4
20:05 1020 30.12 849 25.07 21.8 71.2 35 5.8 42.4
20:10 1020 30.12 849 25.07 21.7 71.1 36 6 42.8
20:15 1020 30.12 849 25.07 21.6 70.8 36 6.1 42.9
20:20 1020 30.12 849 25.07 21.5 70.6 36 5.8 42.4
20:25 1020 30.12 849 25.07 21.5 70.7 36 5.9 42.6
20:30 1020 30.12 849 25.07 21.5 70.7 36 5.8 42.5
20:35 1020 30.12 849 25.07 21.3 70.4 37 6.2 43.2
20:40 1020 30.12 849 25.07 21.2 70.2 37 6.1 42.9
20:45 1020 30.12 849 25.07 21.2 70.1 37 6.2 43.1
20:50 1020 30.12 849 25.07 21.1 70 37 6 42.8
20:55 1020 30.12 849 25.07 21.2 70.1 37 6.2 43.2
21:00 1020 30.12 849 25.07 21.1 69.9 37 6.1 43
21:05 1020 30.12 849 25.07 21.1 70 38 6.3 43.4
21:10 1020 30.12 849 25.07 21 69.9 38 6.3 43.4
21:15 1020 30.12 849 25.07 20.9 69.6 39 6.4 43.6
21:20 1020 30.12 849 25.07 20.8 69.4 39 6.4 43.5
21:25 1020 30.12 849 25.07 20.8 69.4 39 6.5 43.7
21:30 1020 30.12 849 25.07 20.8 69.4 39 6.5 43.6
21:35 1020 30.12 849 25.07 20.8 69.4 39 6.5 43.7
21:40 1020 30.12 849 25.07 20.8 69.5 39 6.5 43.8
21:45 1020 30.12 849 25.07 20.9 69.5 39 6.5 43.8
21:50 1020 30.12 849 25.07 20.8 69.4 39 6.6 43.9
21:55 1020 30.12 849 25.07 20.8 69.4 39 6.5 43.7
22:00 1020 30.12 849 25.07 20.8 69.5 39 6.6 43.8
22:05 1020 30.12 849 25.07 20.8 69.4 39 6.6 43.8
22:10 1020 30.12 849 25.07 20.7 69.2 40 6.8 44.3
22:15 1020 30.12 849 25.07 20.5 69 40 6.7 44
22:20 1020 30.12 849 25.07 20.6 69.1 41 6.9 44.4
22:25 1020 30.12 849 25.07 20.5 68.9 41 6.9 44.4
22:30 1020 30.12 849 25.07 20.4 68.8 41 7 44.6
22:35 1020 30.12 849 25.07 20.4 68.7 41 7 44.6
22:40 1020 30.12 849 25.07 20.4 68.7 41 6.9 44.5
22:45 1020 30.12 849 25.07 20.3 68.6 42 7.1 44.8
22:50 1020 30.12 849 25.07 20.2 68.4 42 7.1 44.7
22:55 1020 30.12 849 25.07 20.2 68.3 43 7.3 45.2
23:00 1020 30.12 849 25.07 20 68 44 7.4 45.2
23:05 1020 30.12 849 25.07 19.9 67.8 44 7.4 45.3
23:10 1020 30.12 849 25.07 19.9 67.8 44 7.5 45.5
23:15 1020 30.12 849 25.07 19.7 67.5 45 7.6 45.6
23:20 1020 30.12 849 25.07 19.7 67.4 45 7.6 45.6
23:25 1020 30.12 849 25.07 19.8 67.6 45 7.6 45.7
23:30 1020 30.12 849 25.07 19.7 67.4 45 7.6 45.8
23:35 1020 30.12 849 25.07 19.6 67.3 46 7.8 46.1
23:40 1020 30.12 849 25.07 19.5 67.1 46 7.8 46
23:45 1020 30.12 849 25.07 19.5 67.1 47 8 46.3
23:50 1020 30.12 849 25.07 19.3 66.7 48 8 46.5
23:55 1020 30.12 849 25.07 19.2 66.5 48 8.1 46.6
24:00 1020 30.12 849 25.07 19.1 66.3 49 8.1 46.6